Time;durP1;ratioP1;P1;durP2;ratioP2;P2;SDS_P1;SDS_P2;PMS_P1;PMS_P2;Temp;Humidity;BMP_temperature;BMP_pressure;BME280_temperature;BME280_humidity;BME280_pressure;Samples;Min_cycle;Max_cycle;Signal;HPM_P1;HPM_P2
2023/08/21 00:01:46;;;;;;;33.47;32.28;;;25.50;99.90;;;;;;4999725;28;20198;-61
2023/08/21 00:04:14;;;;;;;27.88;26.88;;;25.50;99.90;;;;;;5002574;28;20229;-61
2023/08/21 00:06:41;;;;;;;34.35;33.03;;;25.50;99.90;;;;;;5002952;28;20202;-60
2023/08/21 00:09:08;;;;;;;37.85;36.47;;;25.60;99.90;;;;;;5004737;28;20208;-60
2023/08/21 00:11:35;;;;;;;33.10;31.90;;;25.50;99.90;;;;;;5005742;28;20618;-61
2023/08/21 00:14:02;;;;;;;31.85;30.73;;;25.50;99.90;;;;;;5002299;28;20220;-60
2023/08/21 00:16:29;;;;;;;35.05;33.80;;;25.50;99.90;;;;;;5000711;28;20472;-60
2023/08/21 00:18:55;;;;;;;31.52;30.38;;;25.60;99.90;;;;;;5000401;28;20285;-60
2023/08/21 00:21:24;;;;;;;32.38;31.23;;;25.60;99.90;;;;;;4997108;28;20224;-61
2023/08/21 00:23:51;;;;;;;29.00;27.95;;;25.60;99.90;;;;;;4998504;28;20226;-60
2023/08/21 00:26:18;;;;;;;33.78;32.55;;;25.60;99.90;;;;;;5003691;28;20626;-60
2023/08/21 00:28:45;;;;;;;29.70;28.63;;;25.60;99.90;;;;;;5005709;28;20197;-60
2023/08/21 00:31:12;;;;;;;27.70;26.70;;;25.60;99.90;;;;;;5002480;28;20569;-60
2023/08/21 00:33:39;;;;;;;28.98;27.95;;;25.60;99.90;;;;;;5004449;28;20206;-60
2023/08/21 00:36:06;;;;;;;28.80;27.75;;;25.60;99.90;;;;;;5008799;28;20224;-60
2023/08/21 00:38:34;;;;;;;32.30;31.13;;;25.60;99.90;;;;;;5000449;28;20202;-61
2023/08/21 00:41:01;;;;;;;35.50;34.22;;;25.70;99.90;;;;;;5003763;28;20292;-60
2023/08/21 00:43:27;;;;;;;29.63;28.58;;;25.50;99.90;;;;;;5003879;28;20577;-61
2023/08/21 00:45:54;;;;;;;31.65;30.40;;;25.40;99.90;;;;;;5003856;28;20215;-61
2023/08/21 00:48:21;;;;;;;29.60;28.48;;;25.40;99.90;;;;;;5000516;28;20202;-60
2023/08/21 00:50:49;;;;;;;31.90;30.67;;;25.40;99.90;;;;;;4999522;28;20573;-61
2023/08/21 00:53:17;;;;;;;30.00;28.90;;;25.30;99.90;;;;;;5005014;28;20211;-62
2023/08/21 00:55:46;;;;;;;41.33;39.85;;;25.30;99.90;;;;;;5007143;28;20244;-62
2023/08/21 00:58:14;;;;;;;25.88;24.95;;;25.00;99.90;;;;;;5006164;28;20216;-62
2023/08/21 01:00:42;;;;;;;42.67;41.13;;;24.80;99.90;;;;;;5009674;28;20208;-61
2023/08/21 01:03:09;;;;;;;46.55;44.88;;;24.70;99.90;;;;;;5003813;28;20208;-62
2023/08/21 01:05:37;;;;;;;38.22;36.88;;;24.60;99.90;;;;;;5007241;28;20275;-64
2023/08/21 01:08:07;;;;;;;43.55;41.95;;;24.50;99.90;;;;;;5003071;28;20695;-63
2023/08/21 01:10:53;;;;;;;46.33;44.70;;;24.40;99.90;;;;;;5005303;28;20205;-62
2023/08/21 01:13:40;;;;;;;55.30;53.35;;;24.30;99.90;;;;;;5000224;28;20202;-63
2023/08/21 01:16:08;;;;;;;51.47;49.63;;;24.20;99.90;;;;;;5001555;28;20206;-63
2023/08/21 01:18:36;;;;;;;53.90;51.95;;;24.20;99.90;;;;;;5001234;28;20585;-63
2023/08/21 01:21:04;;;;;;;72.40;69.75;;;24.10;99.90;;;;;;5001574;28;20664;-64
2023/08/21 01:23:36;;;;;;;54.58;52.63;;;24.10;99.90;;;;;;5001074;28;20198;-63
2023/08/21 01:26:03;;;;;;;74.15;71.55;;;24.00;99.90;;;;;;5001141;28;20245;-63
2023/08/21 01:28:31;;;;;;;34.65;33.40;;;24.00;99.90;;;;;;5000735;28;20205;-63
2023/08/21 01:31:04;;;;;;;67.65;65.25;;;24.00;99.90;;;;;;5007346;28;20217;-63
2023/08/21 01:33:33;;;;;;;79.95;77.13;;;23.90;99.90;;;;;;5005389;28;20228;-64
2023/08/21 01:36:04;;;;;;;73.25;70.70;;;23.90;99.90;;;;;;4999444;28;20308;-63
2023/08/21 01:38:33;;;;;;;70.28;67.75;;;23.80;99.90;;;;;;5000893;28;20204;-63
2023/08/21 01:41:01;;;;;;;59.13;57.00;;;23.70;99.90;;;;;;5001413;28;20193;-63
2023/08/21 01:43:28;;;;;;;82.78;79.85;;;23.60;99.90;;;;;;4997351;28;20218;-63
2023/08/21 01:45:55;;;;;;;59.28;57.20;;;23.60;99.90;;;;;;5002593;28;20735;-64
2023/08/21 01:48:22;;;;;;;61.45;59.25;;;23.60;99.90;;;;;;5000547;28;20289;-63
2023/08/21 01:50:49;;;;;;;57.30;55.22;;;23.60;99.90;;;;;;4995357;28;20198;-64
2023/08/21 01:53:16;;;;;;;61.60;59.38;;;23.60;99.90;;;;;;4998414;28;20225;-63
2023/08/21 01:55:42;;;;;;;61.42;59.22;;;23.50;99.90;;;;;;5004869;28;20222;-63
2023/08/21 01:58:11;;;;;;;62.50;60.30;;;23.50;99.90;;;;;;5001845;28;20198;-64
2023/08/21 02:00:37;;;;;;;63.88;61.63;;;23.60;99.90;;;;;;4999383;28;20208;-63
2023/08/21 02:03:05;;;;;;;54.53;52.58;;;23.60;99.90;;;;;;5003481;28;20197;-64
2023/08/21 02:05:31;;;;;;;41.97;40.42;;;23.60;99.90;;;;;;4999711;28;20222;-63
2023/08/21 02:07:58;;;;;;;66.68;64.32;;;23.60;99.90;;;;;;5005613;28;20227;-63
2023/08/21 02:10:25;;;;;;;47.85;46.10;;;23.60;99.90;;;;;;4995129;28;20209;-62
2023/08/21 02:12:53;;;;;;;50.42;48.65;;;23.50;99.90;;;;;;4991997;28;20676;-64
2023/08/21 02:15:23;;;;;;;53.42;51.55;;;23.60;99.90;;;;;;4995023;28;20242;-63
2023/08/21 02:17:49;;;;;;;50.90;49.10;;;23.60;99.90;;;;;;4992242;28;20558;-63
2023/08/21 02:20:16;;;;;;;41.05;39.60;;;23.70;99.90;;;;;;4991587;28;20210;-64
2023/08/21 02:22:43;;;;;;;45.97;44.35;;;23.80;99.90;;;;;;4991563;28;20212;-63
2023/08/21 02:25:10;;;;;;;40.38;38.92;;;23.80;99.90;;;;;;4991557;28;20252;-63
2023/08/21 02:27:37;;;;;;;44.88;43.30;;;23.80;99.90;;;;;;4991883;28;20218;-63
2023/08/21 02:30:04;;;;;;;37.67;36.33;;;23.80;99.90;;;;;;4991254;28;20213;-64
2023/08/21 02:32:32;;;;;;;42.83;41.28;;;23.80;99.90;;;;;;4991669;28;20292;-64
2023/08/21 02:34:59;;;;;;;69.38;66.95;;;23.70;99.90;;;;;;4991509;28;20226;-63
2023/08/21 02:37:26;;;;;;;52.53;50.67;;;23.70;99.90;;;;;;4991551;28;20229;-64
2023/08/21 02:39:52;;;;;;;44.28;42.75;;;23.60;99.90;;;;;;4991091;28;20236;-64
2023/08/21 02:42:19;;;;;;;63.85;61.63;;;23.60;99.90;;;;;;4993769;28;20229;-64
2023/08/21 02:44:46;;;;;;;46.15;44.50;;;23.60;99.90;;;;;;5029797;22;20602;-65
2023/08/21 02:47:13;;;;;;;53.95;52.00;;;23.50;99.90;;;;;;5029683;28;20318;-64
2023/08/21 02:49:41;;;;;;;58.03;55.97;;;23.50;99.90;;;;;;5029595;28;20205;-66
2023/08/21 02:52:08;;;;;;;52.30;50.42;;;23.40;99.90;;;;;;5031144;28;20755;-65
2023/08/21 02:54:35;;;;;;;48.67;46.92;;;23.30;99.90;;;;;;5030938;28;20224;-65
2023/08/21 02:57:02;;;;;;;71.40;68.90;;;23.20;99.90;;;;;;5030702;28;20232;-64
2023/08/21 02:59:29;;;;;;;67.05;64.72;;;23.20;99.90;;;;;;5029776;28;20283;-64
2023/08/21 03:01:55;;;;;;;67.43;65.05;;;23.10;99.90;;;;;;5030234;28;20204;-65
2023/08/21 03:04:23;;;;;;;67.65;65.25;;;23.00;99.90;;;;;;5029668;28;20232;-66
2023/08/21 03:06:51;;;;;;;59.67;57.50;;;22.90;99.90;;;;;;5029602;28;20243;-65
2023/08/21 03:09:17;;;;;;;65.40;63.10;;;22.90;99.90;;;;;;5029344;28;20267;-65
2023/08/21 03:11:44;;;;;;;67.35;64.95;;;22.90;99.90;;;;;;5029575;28;20705;-65
2023/08/21 03:14:11;;;;;;;64.30;62.05;;;22.80;99.90;;;;;;5029638;28;20225;-65
2023/08/21 03:16:38;;;;;;;59.30;57.10;;;22.80;99.90;;;;;;5029948;28;20227;-65
2023/08/21 03:19:05;;;;;;;72.47;69.95;;;22.80;99.90;;;;;;5028787;28;20215;-66
2023/08/21 03:21:31;;;;;;;61.35;59.13;;;22.80;99.90;;;;;;5028534;28;20211;-65
2023/08/21 03:24:00;;;;;;;62.78;60.55;;;22.80;99.90;;;;;;5030917;28;20790;-66
2023/08/21 03:26:27;;;;;;;62.42;60.22;;;22.70;99.90;;;;;;5031215;28;20292;-66
2023/08/21 03:28:54;;;;;;;49.78;48.00;;;22.70;99.90;;;;;;5030698;28;20210;-66
2023/08/21 03:31:20;;;;;;;67.32;64.95;;;22.80;99.90;;;;;;5030493;28;20215;-66
2023/08/21 03:33:47;;;;;;;66.22;63.92;;;22.70;99.90;;;;;;5030221;28;20243;-64
2023/08/21 03:36:14;;;;;;;57.22;55.20;;;22.70;99.90;;;;;;5033252;28;20679;-65
2023/08/21 03:38:41;;;;;;;58.63;56.53;;;22.70;99.90;;;;;;5033238;28;20208;-64
2023/08/21 03:41:09;;;;;;;64.82;62.58;;;22.70;99.90;;;;;;5032715;28;20204;-63
2023/08/21 03:43:36;;;;;;;54.67;52.72;;;22.70;99.90;;;;;;5032936;28;20208;-63
2023/08/21 03:46:03;;;;;;;56.35;54.35;;;22.70;99.90;;;;;;5033206;28;20608;-63
2023/08/21 03:48:29;;;;;;;56.40;54.42;;;22.80;99.90;;;;;;5033780;28;20219;-64
2023/08/21 03:50:56;;;;;;;67.97;65.60;;;22.80;99.90;;;;;;5032670;28;20215;-65
2023/08/21 03:53:23;;;;;;;53.35;51.50;;;22.80;99.90;;;;;;5033883;28;20223;-63
2023/08/21 03:55:50;;;;;;;57.63;55.60;;;22.80;99.90;;;;;;5031640;28;20228;-65
2023/08/21 03:58:18;;;;;;;54.85;52.92;;;22.80;99.90;;;;;;5034881;28;20201;-64
2023/08/21 04:00:46;;;;;;;63.15;60.92;;;22.80;99.90;;;;;;5034089;28;20208;-63
2023/08/21 04:03:13;;;;;;;58.78;56.72;;;22.80;99.90;;;;;;5034218;28;20418;-65
2023/08/21 04:05:40;;;;;;;58.67;56.63;;;22.80;99.90;;;;;;5034630;28;20224;-65
2023/08/21 04:08:06;;;;;;;46.95;45.22;;;22.90;99.90;;;;;;5034455;28;20208;-66
2023/08/21 04:10:33;;;;;;;54.58;52.65;;;22.90;99.90;;;;;;5033732;28;20205;-64
2023/08/21 04:13:00;;;;;;;62.97;60.75;;;22.80;99.90;;;;;;5033905;28;20242;-65
2023/08/21 04:15:29;;;;;;;55.95;53.95;;;22.80;99.90;;;;;;5033981;28;20220;-65
2023/08/21 04:17:56;;;;;;;44.80;43.17;;;22.80;99.90;;;;;;5033610;28;20228;-65
2023/08/21 04:20:22;;;;;;;53.28;51.35;;;22.80;99.90;;;;;;5032360;28;20214;-65
2023/08/21 04:22:49;;;;;;;43.47;41.92;;;22.80;99.90;;;;;;5033483;28;20205;-63
2023/08/21 04:25:16;;;;;;;48.13;46.38;;;22.80;99.90;;;;;;5034325;28;20226;-64
2023/08/21 04:27:43;;;;;;;52.28;50.42;;;22.80;99.90;;;;;;5033588;28;20204;-64
2023/08/21 04:30:11;;;;;;;53.58;51.72;;;22.80;99.90;;;;;;5032950;28;20291;-65
2023/08/21 04:32:40;;;;;;;55.58;53.65;;;22.80;99.90;;;;;;5033261;28;20215;-66
2023/08/21 04:35:08;;;;;;;47.25;45.58;;;22.80;99.90;;;;;;5034150;28;20238;-64
2023/08/21 04:37:35;;;;;;;45.55;43.95;;;22.80;99.90;;;;;;5035449;28;20228;-64
2023/08/21 04:40:02;;;;;;;63.55;61.25;;;22.80;99.90;;;;;;5034926;28;20193;-65
2023/08/21 04:42:29;;;;;;;47.35;45.65;;;22.70;99.90;;;;;;5035521;28;20212;-64
2023/08/21 04:44:56;;;;;;;52.85;50.97;;;22.80;99.90;;;;;;5032941;28;20232;-64
2023/08/21 04:47:25;;;;;;;55.50;53.53;;;22.80;99.90;;;;;;5033418;28;20207;-66
2023/08/21 04:49:54;;;;;;;52.20;50.35;;;22.80;99.90;;;;;;5033067;28;20562;-65
2023/08/21 04:52:22;;;;;;;54.83;52.85;;;22.80;99.90;;;;;;5033454;28;20330;-65
2023/08/21 04:54:49;;;;;;;36.50;35.20;;;22.70;99.90;;;;;;5032846;28;20592;-62
2023/08/21 04:57:17;;;;;;;43.85;42.30;;;22.70;99.90;;;;;;5032011;28;20228;-64
2023/08/21 04:59:44;;;;;;;43.65;42.05;;;22.80;99.90;;;;;;5033782;28;20204;-66
2023/08/21 05:02:11;;;;;;;52.47;50.55;;;22.80;99.90;;;;;;5034574;28;20204;-62
2023/08/21 05:04:38;;;;;;;49.30;47.58;;;22.90;99.90;;;;;;5031715;28;20230;-66
2023/08/21 05:07:06;;;;;;;59.50;57.38;;;22.80;99.90;;;;;;5031314;28;20204;-64
2023/08/21 05:09:33;;;;;;;54.55;52.65;;;22.90;99.90;;;;;;5030474;28;20218;-66
2023/08/21 05:12:00;;;;;;;45.65;43.97;;;22.80;99.90;;;;;;5031528;28;20201;-63
2023/08/21 05:14:27;;;;;;;46.90;45.22;;;22.80;99.90;;;;;;5031063;28;20601;-65
2023/08/21 05:16:54;;;;;;;44.55;42.97;;;22.80;99.90;;;;;;5031771;28;20227;-65
2023/08/21 05:19:21;;;;;;;59.03;56.90;;;22.90;99.90;;;;;;5033065;28;20259;-64
2023/08/21 05:21:48;;;;;;;63.97;61.72;;;22.90;99.90;;;;;;5032516;28;20209;-65
2023/08/21 05:24:16;;;;;;;35.47;34.17;;;22.90;99.90;;;;;;5032503;28;20220;-63
2023/08/21 05:26:43;;;;;;;38.65;37.25;;;22.80;99.90;;;;;;5034885;28;20205;-64
2023/08/21 05:29:10;;;;;;;39.97;38.55;;;22.80;99.90;;;;;;5031807;28;20205;-64
2023/08/21 05:31:36;;;;;;;55.90;53.87;;;22.80;99.90;;;;;;5031465;28;20352;-64
2023/08/21 05:34:03;;;;;;;35.13;33.88;;;22.90;99.90;;;;;;5031788;28;20788;-61
2023/08/21 05:36:30;;;;;;;33.78;32.50;;;23.00;99.90;;;;;;5032198;28;20223;-63
2023/08/21 05:38:58;;;;;;;35.22;33.95;;;23.00;99.90;;;;;;5032148;28;20332;-63
2023/08/21 05:41:26;;;;;;;47.35;45.65;;;23.10;99.90;;;;;;5031005;28;20667;-64
2023/08/21 05:43:53;;;;;;;33.75;32.50;;;23.20;99.90;;;;;;5030653;28;20207;-63
2023/08/21 05:46:19;;;;;;;29.50;28.40;;;23.20;99.90;;;;;;5030735;28;20675;-64
2023/08/21 05:48:46;;;;;;;26.27;25.33;;;23.20;99.90;;;;;;5030655;28;20231;-64
2023/08/21 05:51:13;;;;;;;34.50;33.23;;;23.30;99.90;;;;;;5029705;28;20201;-64
2023/08/21 05:53:40;;;;;;;37.92;36.58;;;23.40;99.90;;;;;;5030648;28;20258;-65
2023/08/21 05:56:07;;;;;;;36.17;34.92;;;23.40;99.90;;;;;;5030270;28;20416;-65
2023/08/21 05:58:35;;;;;;;113.30;107.40;;;23.40;99.90;;;;;;5032844;28;20235;-64
2023/08/21 06:01:02;;;;;;;60.80;58.40;;;23.40;99.90;;;;;;5033935;28;20231;-64
2023/08/21 06:03:29;;;;;;;71.45;68.85;;;23.50;99.90;;;;;;5032813;28;20204;-65
2023/08/21 06:05:55;;;;;;;61.42;58.83;;;23.50;99.90;;;;;;5031452;28;20239;-64
2023/08/21 06:08:22;;;;;;;35.00;33.70;;;23.50;99.90;;;;;;5031532;28;20211;-64
2023/08/21 06:10:52;;;;;;;36.72;35.35;;;23.70;99.90;;;;;;5030502;28;20200;-64
2023/08/21 06:13:19;;;;;;;32.95;31.75;;;23.80;99.90;;;;;;5031217;28;20262;-64
2023/08/21 06:15:47;;;;;;;30.45;29.35;;;23.90;99.90;;;;;;5031353;28;20227;-65
2023/08/21 06:18:14;;;;;;;34.80;33.53;;;24.00;99.90;;;;;;5031760;28;20264;-66
2023/08/21 06:20:43;;;;;;;39.70;38.30;;;24.20;99.90;;;;;;5032040;28;20213;-65
2023/08/21 06:23:10;;;;;;;43.75;42.17;;;24.30;99.90;;;;;;5028141;28;20208;-64
2023/08/21 06:25:37;;;;;;;28.92;27.88;;;24.50;99.90;;;;;;5030182;28;20225;-62
2023/08/21 06:28:04;;;;;;;33.42;32.22;;;24.60;99.90;;;;;;5030627;28;20383;-65
2023/08/21 06:30:31;;;;;;;38.70;37.33;;;24.70;99.90;;;;;;5029679;28;20196;-64
2023/08/21 06:32:59;;;;;;;28.90;27.83;;;24.80;99.90;;;;;;5029653;28;20547;-65
2023/08/21 06:35:26;;;;;;;32.30;31.13;;;25.00;99.90;;;;;;5029711;28;20311;-66
2023/08/21 06:37:54;;;;;;;28.98;27.95;;;25.10;99.90;;;;;;5029544;28;20544;-64
2023/08/21 06:40:21;;;;;;;27.58;26.58;;;25.30;99.90;;;;;;5028960;28;20533;-62
2023/08/21 06:42:49;;;;;;;19.40;18.73;;;25.40;99.90;;;;;;5029642;28;20208;-66
2023/08/21 06:45:16;;;;;;;14.80;14.30;;;25.50;99.90;;;;;;5029399;28;20324;-66
2023/08/21 06:47:42;;;;;;;15.38;14.85;;;25.60;99.90;;;;;;5029480;28;20291;-65
2023/08/21 06:50:11;;;;;;;21.25;20.45;;;25.70;99.90;;;;;;5028860;28;20220;-63
2023/08/21 06:52:38;;;;;;;21.50;20.73;;;25.70;99.90;;;;;;5030047;28;20568;-64
2023/08/21 06:55:05;;;;;;;29.60;28.50;;;25.80;99.90;;;;;;5030537;28;20229;-64
2023/08/21 06:57:32;;;;;;;36.70;35.30;;;25.80;99.90;;;;;;5029503;28;20278;-66
2023/08/21 06:59:59;;;;;;;38.38;37.00;;;25.80;99.90;;;;;;5029331;28;20270;-64
2023/08/21 07:02:26;;;;;;;53.50;51.20;;;25.70;99.90;;;;;;5030223;28;20307;-63
2023/08/21 07:04:53;;;;;;;43.85;41.97;;;25.70;99.90;;;;;;5030273;28;20224;-65
2023/08/21 07:07:21;;;;;;;36.03;34.72;;;25.60;99.90;;;;;;5030915;28;20232;-65
2023/08/21 07:09:48;;;;;;;47.97;46.08;;;25.50;99.90;;;;;;5039593;28;20201;-64
2023/08/21 07:12:15;;;;;;;36.67;35.30;;;25.50;99.90;;;;;;5042955;28;20674;-66
2023/08/21 07:14:41;;;;;;;35.17;33.88;;;25.50;99.90;;;;;;5033889;28;20323;-65
2023/08/21 07:17:08;;;;;;;37.35;35.85;;;25.70;99.90;;;;;;5033229;28;20221;-65
2023/08/21 07:19:35;;;;;;;37.92;36.60;;;25.70;99.90;;;;;;5032952;28;20693;-65
2023/08/21 07:22:02;;;;;;;41.05;39.60;;;25.80;99.90;;;;;;5033977;28;20441;-63
2023/08/21 07:24:30;;;;;;;42.28;40.78;;;25.90;99.90;;;;;;5033553;28;20228;-65
2023/08/21 07:26:57;;;;;;;37.40;36.05;;;26.00;99.90;;;;;;5032403;28;20312;-66
2023/08/21 07:29:24;;;;;;;33.78;32.58;;;26.00;99.90;;;;;;5031343;28;20211;-66
2023/08/21 07:31:51;;;;;;;35.67;34.40;;;26.10;99.90;;;;;;5032617;28;20673;-63
2023/08/21 07:34:17;;;;;;;42.38;40.83;;;26.20;99.90;;;;;;5032597;28;20315;-65
2023/08/21 07:36:44;;;;;;;39.22;37.80;;;26.30;99.90;;;;;;5030393;28;20622;-64
2023/08/21 07:39:11;;;;;;;39.08;37.67;;;26.50;99.90;;;;;;5029178;28;20235;-65
2023/08/21 07:41:39;;;;;;;48.58;46.75;;;26.60;99.90;;;;;;5032835;28;20218;-65
2023/08/21 07:44:06;;;;;;;48.47;46.70;;;26.50;99.90;;;;;;5031863;28;20224;-64
2023/08/21 07:46:33;;;;;;;47.70;45.95;;;26.70;99.90;;;;;;5036430;28;20667;-65
2023/08/21 07:49:00;;;;;;;32.08;30.90;;;26.70;99.90;;;;;;5033428;28;20201;-65
2023/08/21 07:51:27;;;;;;;39.50;38.05;;;26.80;99.90;;;;;;5033333;28;20203;-65
2023/08/21 07:53:54;;;;;;;34.72;33.47;;;27.00;99.90;;;;;;5034068;28;20291;-65
2023/08/21 07:56:21;;;;;;;33.40;32.20;;;27.00;99.90;;;;;;5033987;28;20640;-65
2023/08/21 07:58:49;;;;;;;22.52;21.73;;;27.10;99.90;;;;;;5034011;28;20224;-65
2023/08/21 08:01:16;;;;;;;30.95;29.88;;;27.20;99.90;;;;;;5033229;28;20288;-65
2023/08/21 08:03:42;;;;;;;32.35;31.08;;;27.20;99.90;;;;;;5033552;28;20209;-66
2023/08/21 08:06:09;;;;;;;33.47;32.10;;;27.30;99.90;;;;;;5033622;28;20278;-62
2023/08/21 08:08:36;;;;;;;29.65;28.58;;;27.30;99.90;;;;;;5032928;28;20197;-66
2023/08/21 08:11:04;;;;;;;21.02;20.10;;;27.20;99.90;;;;;;5031481;28;20990;-63
2023/08/21 08:13:32;;;;;;;26.77;25.77;;;27.30;99.90;;;;;;5030926;28;20200;-65
2023/08/21 08:16:00;;;;;;;27.55;26.52;;;27.40;99.90;;;;;;5032929;28;20224;-64
2023/08/21 08:18:27;;;;;;;29.27;28.25;;;27.50;99.90;;;;;;5032772;28;20216;-66
2023/08/21 08:20:54;;;;;;;25.25;24.35;;;27.60;99.90;;;;;;5031928;28;20650;-63
2023/08/21 08:23:23;;;;;;;22.55;21.75;;;27.70;99.90;;;;;;5033489;28;20200;-66
2023/08/21 08:25:50;;;;;;;23.65;22.85;;;27.80;99.90;;;;;;5035730;28;20282;-65
2023/08/21 08:28:16;;;;;;;23.20;22.40;;;27.90;99.90;;;;;;5035103;28;20201;-68
2023/08/21 08:30:43;;;;;;;23.35;22.55;;;28.00;99.90;;;;;;5036365;28;20201;-63
2023/08/21 08:33:11;;;;;;;26.02;25.13;;;27.90;99.90;;;;;;5039167;28;20220;-64
2023/08/21 08:35:40;;;;;;;24.52;23.52;;;28.20;99.90;;;;;;5042247;28;20267;-64
2023/08/21 08:38:07;;;;;;;28.52;27.45;;;28.40;99.90;;;;;;5041572;28;20840;-65
2023/08/21 08:40:35;;;;;;;33.97;32.60;;;28.40;99.90;;;;;;5043517;28;20300;-65
2023/08/21 08:43:01;;;;;;;32.78;31.60;;;28.50;99.90;;;;;;5037567;28;20287;-63
2023/08/21 08:45:31;;;;;;;29.33;28.23;;;28.50;99.90;;;;;;5044148;22;20315;-65
2023/08/21 08:48:00;;;;;;;27.52;26.52;;;28.60;99.90;;;;;;5019602;28;20655;-65
2023/08/21 08:50:30;;;;;;;39.25;37.78;;;28.70;99.90;;;;;;5012852;28;20651;-65
2023/08/21 08:52:59;;;;;;;33.40;32.20;;;28.80;99.90;;;;;;5022948;28;20235;-65
2023/08/21 08:55:26;;;;;;;35.35;34.05;;;28.80;99.90;;;;;;5017980;28;20225;-65
2023/08/21 08:57:53;;;;;;;36.85;35.55;;;28.90;99.90;;;;;;5013869;28;20335;-65
2023/08/21 09:00:21;;;;;;;40.50;38.78;;;29.00;99.90;;;;;;5019748;28;20212;-64
2023/08/21 09:02:49;;;;;;;36.45;35.10;;;29.00;99.90;;;;;;5022173;28;20207;-65
2023/08/21 09:05:16;;;;;;;43.25;41.67;;;29.00;99.90;;;;;;5022831;28;20242;-65
2023/08/21 09:07:44;;;;;;;45.00;43.33;;;29.30;99.90;;;;;;5020400;28;20659;-65
2023/08/21 09:10:15;;;;;;;40.95;39.45;;;29.40;99.90;;;;;;5020662;28;20288;-65
2023/08/21 09:12:42;;;;;;;37.97;36.58;;;29.40;99.90;;;;;;5020460;28;20197;-63
2023/08/21 09:15:09;;;;;;;41.10;39.55;;;29.50;99.90;;;;;;5021720;28;20229;-63
2023/08/21 09:17:36;;;;;;;25.58;24.63;;;29.50;99.90;;;;;;5029677;28;20213;-64
2023/08/21 09:20:08;;;;;;;28.40;27.30;;;29.60;99.90;;;;;;5025202;28;20205;-64
2023/08/21 09:22:35;;;;;;;30.73;29.52;;;29.60;99.90;;;;;;5023300;28;20701;-62
2023/08/21 09:25:06;;;;;;;38.92;37.47;;;29.70;99.90;;;;;;5024888;28;20205;-63
2023/08/21 09:27:34;;;;;;;23.27;22.38;;;29.70;99.90;;;;;;5025756;28;20193;-63
2023/08/21 09:30:03;;;;;;;24.75;23.77;;;29.80;99.90;;;;;;5020070;28;20724;-64
2023/08/21 09:32:30;;;;;;;22.60;21.75;;;30.00;99.90;;;;;;5018631;28;20670;-64
2023/08/21 09:34:57;;;;;;;29.83;28.70;;;30.20;99.90;;;;;;5020085;28;20233;-64
2023/08/21 09:37:29;;;;;;;27.20;26.20;;;30.30;99.90;;;;;;5020981;28;20224;-64
2023/08/21 09:40:05;;;;;;;19.95;19.15;;;30.30;99.90;;;;;;5019802;28;20209;-64
2023/08/21 09:42:31;;;;;;;24.17;23.27;;;30.30;99.90;;;;;;5021121;28;20201;-65
2023/08/21 09:44:58;;;;;;;21.75;20.95;;;30.30;99.90;;;;;;5023331;28;20204;-64
2023/08/21 09:47:27;;;;;;;27.55;26.35;;;30.20;99.90;;;;;;5023951;28;20197;-65
2023/08/21 09:49:54;;;;;;;21.95;21.05;;;30.20;99.90;;;;;;5020854;28;20194;-65
2023/08/21 09:52:21;;;;;;;21.67;20.88;;;30.30;99.90;;;;;;5021188;28;20741;-64
2023/08/21 09:54:49;;;;;;;20.33;19.60;;;30.50;99.90;;;;;;5021208;28;20689;-64
2023/08/21 09:57:17;;;;;;;20.55;19.75;;;30.70;99.90;;;;;;5025002;28;20299;-66
2023/08/21 09:59:45;;;;;;;20.45;19.65;;;30.80;99.90;;;;;;5020929;28;20224;-64
2023/08/21 10:02:12;;;;;;;20.40;19.60;;;30.80;99.90;;;;;;5022942;28;20205;-65
2023/08/21 10:04:42;;;;;;;19.88;19.13;;;30.90;99.90;;;;;;5021297;28;20201;-66
2023/08/21 10:07:09;;;;;;;21.30;20.40;;;31.00;99.90;;;;;;5023430;28;20217;-65
2023/08/21 10:09:38;;;;;;;20.45;19.55;;;31.10;99.90;;;;;;5021033;28;20376;-65
2023/08/21 10:12:07;;;;;;;19.15;18.45;;;31.10;99.90;;;;;;5019266;28;20197;-64
2023/08/21 10:14:36;;;;;;;19.58;18.80;;;31.10;99.90;;;;;;5021449;28;20297;-64
2023/08/21 10:17:03;;;;;;;19.00;18.30;;;31.30;99.90;;;;;;5025233;28;20324;-64
2023/08/21 10:19:32;;;;;;;19.25;18.50;;;31.60;99.90;;;;;;5027742;28;20239;-64
2023/08/21 10:21:59;;;;;;;16.40;15.80;;;31.70;99.90;;;;;;5020150;28;20201;-64
2023/08/21 10:24:35;;;;;;;16.05;15.43;;;31.80;99.90;;;;;;5020519;28;20679;-64
2023/08/21 10:27:02;;;;;;;16.50;15.90;;;31.80;99.90;;;;;;5019952;28;20216;-64
2023/08/21 10:29:31;;;;;;;19.05;18.35;;;31.70;99.90;;;;;;5020583;28;20223;-65
2023/08/21 10:32:03;;;;;;;19.20;18.50;;;31.60;99.90;;;;;;5021656;28;20213;-66
2023/08/21 10:34:35;;;;;;;20.52;19.77;;;31.80;99.90;;;;;;5021249;28;20670;-63
2023/08/21 10:37:12;;;;;;;18.75;18.02;;;31.90;99.90;;;;;;5019216;28;20724;-65
2023/08/21 10:39:42;;;;;;;18.02;17.33;;;32.10;99.90;;;;;;5019589;28;20319;-65
2023/08/21 10:42:13;;;;;;;18.92;18.17;;;32.10;99.90;;;;;;5022582;28;20205;-65
2023/08/21 10:44:55;;;;;;;20.05;19.30;;;32.20;99.90;;;;;;5021604;28;20307;-66
2023/08/21 10:47:24;;;;;;;18.73;18.02;;;32.20;99.90;;;;;;5020895;28;20295;-66
2023/08/21 10:49:53;;;;;;;20.08;19.27;;;32.10;99.90;;;;;;5018708;28;20211;-65
2023/08/21 10:52:24;;;;;;;19.05;18.25;;;32.10;99.90;;;;;;5018351;28;20516;-65
2023/08/21 10:54:54;;;;;;;19.77;18.98;;;32.10;99.90;;;;;;5022210;28;20287;-66
2023/08/21 10:57:22;;;;;;;19.80;19.00;;;32.40;99.90;;;;;;5032249;28;20261;-65
2023/08/21 10:59:54;;;;;;;23.02;21.90;;;32.50;99.90;;;;;;5026103;28;20311;-65
2023/08/21 11:02:22;;;;;;;25.35;24.30;;;32.40;99.90;;;;;;5022957;28;20742;-64
2023/08/21 11:04:50;;;;;;;22.17;21.08;;;32.40;99.90;;;;;;5020240;28;20208;-66
2023/08/21 11:07:16;;;;;;;19.45;18.75;;;32.10;99.90;;;;;;5013282;28;20284;-66
2023/08/21 11:09:44;;;;;;;19.67;18.77;;;32.00;99.90;;;;;;5016505;28;20203;-65
2023/08/21 11:12:12;;;;;;;19.92;19.13;;;32.30;99.90;;;;;;5027201;28;20204;-66
2023/08/21 11:14:40;;;;;;;18.63;17.92;;;32.50;99.90;;;;;;5030222;28;20220;-66
2023/08/21 11:17:08;;;;;;;19.55;18.80;;;32.70;99.90;;;;;;5029528;28;20263;-65
2023/08/21 11:19:37;;;;;;;18.63;17.92;;;32.80;99.90;;;;;;5028452;28;20613;-66
2023/08/21 11:22:05;;;;;;;35.95;34.17;;;32.80;99.90;;;;;;5029706;28;20211;-65
2023/08/21 11:24:40;;;;;;;19.58;18.88;;;32.80;99.90;;;;;;5029896;28;20201;-65
2023/08/21 11:27:07;;;;;;;21.73;20.92;;;32.80;99.90;;;;;;5029760;28;20638;-65
2023/08/21 11:29:38;;;;;;;78.75;73.10;;;32.90;99.90;;;;;;5028471;28;20207;-66
2023/08/21 11:32:09;;;;;;;19.02;18.25;;;32.80;99.90;;;;;;5029052;28;20637;-65
2023/08/21 11:34:37;;;;;;;18.85;18.15;;;32.80;99.90;;;;;;5029401;28;20205;-65
2023/08/21 11:37:05;;;;;;;22.00;21.20;;;32.80;99.90;;;;;;5029393;28;20227;-67
2023/08/21 11:39:43;;;;;;;19.13;18.33;;;32.90;99.90;;;;;;5028338;28;20216;-65
2023/08/21 11:42:12;;;;;;;20.50;19.70;;;33.00;99.90;;;;;;5029101;28;20212;-65
2023/08/21 11:44:44;;;;;;;20.85;20.05;;;33.20;99.90;;;;;;5029671;28;20223;-66
2023/08/21 11:47:10;;;;;;;21.10;20.30;;;33.00;99.90;;;;;;5029566;28;20237;-65
2023/08/21 11:49:41;;;;;;;19.77;19.08;;;33.10;99.90;;;;;;5029612;28;20205;-66
2023/08/21 11:52:08;;;;;;;30.25;28.77;;;33.30;99.90;;;;;;5030347;28;20205;-66
2023/08/21 11:54:36;;;;;;;19.35;18.55;;;33.20;99.90;;;;;;5030625;28;20675;-65
2023/08/21 11:57:06;;;;;;;20.75;19.77;;;33.10;99.90;;;;;;5033710;28;20229;-65
2023/08/21 11:59:33;;;;;;;20.70;19.90;;;33.10;99.90;;;;;;5033034;28;20563;-65
2023/08/21 12:01:59;;;;;;;91.28;84.78;;;32.90;99.90;;;;;;5035084;28;20215;-66
2023/08/21 12:04:26;;;;;;;19.08;18.38;;;33.00;99.90;;;;;;5035215;28;20212;-66
2023/08/21 12:06:55;;;;;;;18.70;18.00;;;33.00;99.90;;;;;;5034076;28;20307;-65
2023/08/21 12:09:21;;;;;;;20.50;19.70;;;33.10;99.90;;;;;;5033630;28;20262;-65
2023/08/21 12:11:48;;;;;;;17.65;16.95;;;33.30;99.90;;;;;;5033998;28;20205;-65
2023/08/21 12:14:16;;;;;;;14.15;13.65;;;33.40;99.90;;;;;;5033800;28;20207;-65
2023/08/21 12:16:44;;;;;;;16.05;15.40;;;33.60;99.90;;;;;;5033818;28;20221;-65
2023/08/21 12:19:11;;;;;;;15.75;15.02;;;33.60;99.90;;;;;;5032661;28;20645;-65
2023/08/21 12:21:39;;;;;;;24.83;23.58;;;33.80;99.90;;;;;;5032338;28;20690;-65
2023/08/21 12:24:07;;;;;;;20.35;19.48;;;33.90;99.90;;;;;;5032207;28;20577;-64
2023/08/21 12:26:34;;;;;;;14.45;13.85;;;33.70;99.90;;;;;;5032118;28;20224;-65
2023/08/21 12:29:02;;;;;;;25.30;24.20;;;33.80;99.90;;;;;;5032080;28;20426;-63